sensor_id;sensor_type;location;lat;lon;timestamp;pressure;altitude;pressure_sealevel;temperature;humidity
82290;BME280;71891;21.336;-157.724;2023-08-30T00:01:35;101424.82;;;34.82;26.05
82290;BME280;71891;21.336;-157.724;2023-08-30T00:04:01;101418.93;;;35.04;26.08
82290;BME280;71891;21.336;-157.724;2023-08-30T00:06:26;101416.78;;;35.43;26.23
82290;BME280;71891;21.336;-157.724;2023-08-30T00:08:52;101421.06;;;35.25;25.88
82290;BME280;71891;21.336;-157.724;2023-08-30T00:11:17;101415.58;;;35.26;25.73
82290;BME280;71891;21.336;-157.724;2023-08-30T00:13:43;101418.05;;;34.89;25.68
82290;BME280;71891;21.336;-157.724;2023-08-30T00:16:09;101417.27;;;34.78;25.59
82290;BME280;71891;21.336;-157.724;2023-08-30T00:18:34;101411.65;;;34.87;25.35
82290;BME280;71891;21.336;-157.724;2023-08-30T00:21:00;101410.32;;;35.15;25.16
82290;BME280;71891;21.336;-157.724;2023-08-30T00:23:25;101413.87;;;35.20;25.48
82290;BME280;71891;21.336;-157.724;2023-08-30T00:25:51;101409.41;;;34.77;25.53
82290;BME280;71891;21.336;-157.724;2023-08-30T00:28:16;101413.55;;;34.97;25.40
82290;BME280;71891;21.336;-157.724;2023-08-30T00:30:42;101410.91;;;34.71;25.55
82290;BME280;71891;21.336;-157.724;2023-08-30T00:33:07;101411.04;;;35.06;25.92
82290;BME280;71891;21.336;-157.724;2023-08-30T00:35:33;101406.28;;;34.88;25.80
82290;BME280;71891;21.336;-157.724;2023-08-30T00:37:58;101402.56;;;34.56;26.15
82290;BME280;71891;21.336;-157.724;2023-08-30T00:40:24;101399.94;;;33.64;26.34
82290;BME280;71891;21.336;-157.724;2023-08-30T00:42:50;101403.05;;;34.31;25.98
82290;BME280;71891;21.336;-157.724;2023-08-30T00:45:15;101404.69;;;34.49;25.69
82290;BME280;71891;21.336;-157.724;2023-08-30T00:47:41;101401.76;;;34.60;25.45
82290;BME280;71891;21.336;-157.724;2023-08-30T00:50:07;101399.38;;;34.70;25.00
82290;BME280;71891;21.336;-157.724;2023-08-30T00:52:32;101394.93;;;34.98;25.15
82290;BME280;71891;21.336;-157.724;2023-08-30T00:54:58;101393.05;;;34.56;25.40
82290;BME280;71891;21.336;-157.724;2023-08-30T00:57:23;101388.59;;;34.80;25.62
82290;BME280;71891;21.336;-157.724;2023-08-30T00:59:50;101399.08;;;34.82;25.67
82290;BME280;71891;21.336;-157.724;2023-08-30T01:02:14;101396.76;;;34.33;25.58
82290;BME280;71891;21.336;-157.724;2023-08-30T01:04:39;101395.34;;;33.30;25.60
82290;BME280;71891;21.336;-157.724;2023-08-30T01:07:05;101395.02;;;34.52;25.25
82290;BME280;71891;21.336;-157.724;2023-08-30T01:09:30;101392.64;;;35.14;24.43
82290;BME280;71891;21.336;-157.724;2023-08-30T01:12:02;101398.04;;;34.60;24.80
82290;BME280;71891;21.336;-157.724;2023-08-30T01:14:25;101395.13;;;34.09;25.03
82290;BME280;71891;21.336;-157.724;2023-08-30T01:16:48;101398.07;;;35.29;24.58
82290;BME280;71891;21.336;-157.724;2023-08-30T01:19:26;101396.77;;;34.83;25.00
82290;BME280;71891;21.336;-157.724;2023-08-30T01:21:45;101394.88;;;35.66;24.19
82290;BME280;71891;21.336;-157.724;2023-08-30T01:24:07;101388.55;;;34.50;24.84
82290;BME280;71891;21.336;-157.724;2023-08-30T01:26:38;101383.31;;;34.89;24.83
82290;BME280;71891;21.336;-157.724;2023-08-30T01:28:56;101380.37;;;34.89;24.89
82290;BME280;71891;21.336;-157.724;2023-08-30T01:31:22;101384.50;;;35.27;24.77
82290;BME280;71891;21.336;-157.724;2023-08-30T01:33:47;101389.00;;;34.04;25.37
82290;BME280;71891;21.336;-157.724;2023-08-30T01:36:12;101393.65;;;34.73;25.44
82290;BME280;71891;21.336;-157.724;2023-08-30T01:38:37;101388.94;;;34.50;25.47
82290;BME280;71891;21.336;-157.724;2023-08-30T01:41:03;101391.54;;;34.29;25.57
82290;BME280;71891;21.336;-157.724;2023-08-30T01:43:28;101392.08;;;35.04;25.46
82290;BME280;71891;21.336;-157.724;2023-08-30T01:45:54;101390.09;;;34.20;25.80
82290;BME280;71891;21.336;-157.724;2023-08-30T01:48:20;101388.25;;;34.23;26.18
82290;BME280;71891;21.336;-157.724;2023-08-30T01:50:45;101390.01;;;34.23;25.82
82290;BME280;71891;21.336;-157.724;2023-08-30T01:53:11;101391.41;;;35.17;25.76
82290;BME280;71891;21.336;-157.724;2023-08-30T01:55:37;101395.77;;;35.15;25.39
82290;BME280;71891;21.336;-157.724;2023-08-30T01:58:02;101394.45;;;34.43;26.09
82290;BME280;71891;21.336;-157.724;2023-08-30T02:00:27;101391.49;;;34.02;26.42
82290;BME280;71891;21.336;-157.724;2023-08-30T02:02:53;101394.52;;;34.59;26.30
82290;BME280;71891;21.336;-157.724;2023-08-30T02:05:18;101392.15;;;33.75;26.18
82290;BME280;71891;21.336;-157.724;2023-08-30T02:07:51;101391.79;;;35.10;25.44
82290;BME280;71891;21.336;-157.724;2023-08-30T02:10:11;101399.33;;;34.50;26.00
82290;BME280;71891;21.336;-157.724;2023-08-30T02:12:39;101401.84;;;33.89;26.25
82290;BME280;71891;21.336;-157.724;2023-08-30T02:15:01;101406.98;;;35.10;25.39
82290;BME280;71891;21.336;-157.724;2023-08-30T02:17:26;101402.26;;;34.26;26.03
82290;BME280;71891;21.336;-157.724;2023-08-30T02:19:52;101401.71;;;33.83;26.08
82290;BME280;71891;21.336;-157.724;2023-08-30T02:22:17;101402.19;;;34.07;26.27
82290;BME280;71891;21.336;-157.724;2023-08-30T02:24:42;101406.43;;;34.62;25.94
82290;BME280;71891;21.336;-157.724;2023-08-30T02:27:08;101403.17;;;34.01;26.18
82290;BME280;71891;21.336;-157.724;2023-08-30T02:29:33;101406.38;;;34.39;26.06
82290;BME280;71891;21.336;-157.724;2023-08-30T02:31:59;101404.01;;;35.00;26.10
82290;BME280;71891;21.336;-157.724;2023-08-30T02:34:24;101404.16;;;33.31;26.58
82290;BME280;71891;21.336;-157.724;2023-08-30T02:36:50;101415.65;;;33.17;26.93
82290;BME280;71891;21.336;-157.724;2023-08-30T02:39:16;101416.35;;;33.78;27.37
82290;BME280;71891;21.336;-157.724;2023-08-30T02:41:42;101420.23;;;34.35;27.28
82290;BME280;71891;21.336;-157.724;2023-08-30T02:44:10;101419.67;;;33.19;28.18
82290;BME280;71891;21.336;-157.724;2023-08-30T02:46:32;101418.92;;;34.26;28.11
82290;BME280;71891;21.336;-157.724;2023-08-30T02:48:58;101421.93;;;33.98;28.30
82290;BME280;71891;21.336;-157.724;2023-08-30T02:51:23;101420.08;;;34.53;28.21
82290;BME280;71891;21.336;-157.724;2023-08-30T02:53:49;101418.07;;;33.93;28.38
82290;BME280;71891;21.336;-157.724;2023-08-30T02:56:14;101416.10;;;34.22;28.49
82290;BME280;71891;21.336;-157.724;2023-08-30T02:58:39;101418.44;;;33.83;28.41
82290;BME280;71891;21.336;-157.724;2023-08-30T03:01:05;101418.62;;;34.00;28.72
82290;BME280;71891;21.336;-157.724;2023-08-30T03:03:31;101422.70;;;33.71;28.67
82290;BME280;71891;21.336;-157.724;2023-08-30T03:05:56;101428.54;;;33.79;28.16
82290;BME280;71891;21.336;-157.724;2023-08-30T03:08:22;101426.03;;;34.01;28.13
82290;BME280;71891;21.336;-157.724;2023-08-30T03:10:48;101423.69;;;34.36;27.85
82290;BME280;71891;21.336;-157.724;2023-08-30T03:13:13;101421.63;;;33.63;28.62
82290;BME280;71891;21.336;-157.724;2023-08-30T03:15:38;101419.13;;;33.41;28.66
82290;BME280;71891;21.336;-157.724;2023-08-30T03:18:04;101423.52;;;33.39;28.80
82290;BME280;71891;21.336;-157.724;2023-08-30T03:20:30;101427.08;;;31.09;28.83
82290;BME280;71891;21.336;-157.724;2023-08-30T03:22:57;101424.51;;;32.73;29.39
82290;BME280;71891;21.336;-157.724;2023-08-30T03:25:21;101424.81;;;33.50;28.70
82290;BME280;71891;21.336;-157.724;2023-08-30T03:27:47;101420.74;;;33.67;28.60
82290;BME280;71891;21.336;-157.724;2023-08-30T03:30:12;101421.35;;;31.89;29.09
82290;BME280;71891;21.336;-157.724;2023-08-30T03:32:37;101421.74;;;33.45;28.80
82290;BME280;71891;21.336;-157.724;2023-08-30T03:35:03;101429.75;;;33.25;29.29
82290;BME280;71891;21.336;-157.724;2023-08-30T03:37:28;101432.02;;;33.04;29.27
82290;BME280;71891;21.336;-157.724;2023-08-30T03:39:54;101435.50;;;32.62;29.09
82290;BME280;71891;21.336;-157.724;2023-08-30T03:42:20;101444.47;;;33.19;29.74
82290;BME280;71891;21.336;-157.724;2023-08-30T03:44:45;101446.22;;;32.84;29.47
82290;BME280;71891;21.336;-157.724;2023-08-30T03:47:11;101449.60;;;33.48;29.28
82290;BME280;71891;21.336;-157.724;2023-08-30T03:49:36;101456.37;;;32.42;29.92
82290;BME280;71891;21.336;-157.724;2023-08-30T03:52:02;101458.48;;;32.78;30.03
82290;BME280;71891;21.336;-157.724;2023-08-30T03:54:27;101456.11;;;32.97;30.05
82290;BME280;71891;21.336;-157.724;2023-08-30T03:56:53;101458.18;;;32.65;30.11
82290;BME280;71891;21.336;-157.724;2023-08-30T03:59:18;101459.54;;;33.05;29.86
82290;BME280;71891;21.336;-157.724;2023-08-30T04:01:45;101465.33;;;33.18;29.69
82290;BME280;71891;21.336;-157.724;2023-08-30T04:04:10;101464.41;;;32.62;29.81
82290;BME280;71891;21.336;-157.724;2023-08-30T04:06:35;101465.84;;;32.95;29.93
82290;BME280;71891;21.336;-157.724;2023-08-30T04:09:01;101468.81;;;32.88;30.01
82290;BME280;71891;21.336;-157.724;2023-08-30T04:11:26;101469.39;;;32.60;30.32
82290;BME280;71891;21.336;-157.724;2023-08-30T04:13:52;101473.88;;;32.72;30.34
82290;BME280;71891;21.336;-157.724;2023-08-30T04:16:17;101474.53;;;32.44;30.74
82290;BME280;71891;21.336;-157.724;2023-08-30T04:18:43;101476.95;;;31.47;30.53
82290;BME280;71891;21.336;-157.724;2023-08-30T04:21:09;101483.85;;;32.54;30.52
82290;BME280;71891;21.336;-157.724;2023-08-30T04:23:34;101486.07;;;32.34;30.95
82290;BME280;71891;21.336;-157.724;2023-08-30T04:25:59;101491.45;;;32.18;30.94
82290;BME280;71891;21.336;-157.724;2023-08-30T04:28:26;101493.21;;;32.96;31.04
82290;BME280;71891;21.336;-157.724;2023-08-30T04:30:54;101493.35;;;32.88;30.39
82290;BME280;71891;21.336;-157.724;2023-08-30T04:33:16;101498.29;;;32.97;30.29
82290;BME280;71891;21.336;-157.724;2023-08-30T04:35:42;101504.96;;;32.72;30.15
82290;BME280;71891;21.336;-157.724;2023-08-30T04:38:07;101500.00;;;33.21;30.60
82290;BME280;71891;21.336;-157.724;2023-08-30T04:40:33;101503.60;;;32.52;30.79
82290;BME280;71891;21.336;-157.724;2023-08-30T04:42:59;101505.78;;;32.35;31.14
82290;BME280;71891;21.336;-157.724;2023-08-30T04:45:24;101503.07;;;31.84;31.72
82290;BME280;71891;21.336;-157.724;2023-08-30T04:47:49;101507.65;;;32.37;31.32
82290;BME280;71891;21.336;-157.724;2023-08-30T04:50:15;101496.95;;;31.16;31.87
82290;BME280;71891;21.336;-157.724;2023-08-30T04:52:40;101511.60;;;32.73;31.29
82290;BME280;71891;21.336;-157.724;2023-08-30T04:55:07;101511.22;;;31.58;31.93
82290;BME280;71891;21.336;-157.724;2023-08-30T04:57:31;101517.02;;;31.87;32.16
82290;BME280;71891;21.336;-157.724;2023-08-30T04:59:57;101522.41;;;32.37;31.74
82290;BME280;71891;21.336;-157.724;2023-08-30T05:02:23;101525.18;;;32.20;31.61
82290;BME280;71891;21.336;-157.724;2023-08-30T05:04:48;101526.57;;;31.65;31.80
82290;BME280;71891;21.336;-157.724;2023-08-30T05:07:14;101524.49;;;32.95;31.94
82290;BME280;71891;21.336;-157.724;2023-08-30T05:09:39;101526.32;;;31.89;31.79
82290;BME280;71891;21.336;-157.724;2023-08-30T05:12:05;101529.38;;;32.70;31.90
82290;BME280;71891;21.336;-157.724;2023-08-30T05:14:31;101531.59;;;31.91;32.25
82290;BME280;71891;21.336;-157.724;2023-08-30T05:16:56;101533.55;;;32.18;31.83
82290;BME280;71891;21.336;-157.724;2023-08-30T05:19:22;101547.20;;;30.39;32.23
82290;BME280;71891;21.336;-157.724;2023-08-30T05:21:48;101546.59;;;31.84;32.45
82290;BME280;71891;21.336;-157.724;2023-08-30T05:24:13;101540.21;;;32.00;32.41
82290;BME280;71891;21.336;-157.724;2023-08-30T05:26:38;101537.24;;;32.47;32.13
82290;BME280;71891;21.336;-157.724;2023-08-30T05:29:04;101527.68;;;31.57;32.48
82290;BME280;71891;21.336;-157.724;2023-08-30T05:31:30;101530.08;;;31.53;32.93
82290;BME280;71891;21.336;-157.724;2023-08-30T05:33:55;101532.42;;;31.82;32.27
82290;BME280;71891;21.336;-157.724;2023-08-30T05:36:21;101533.91;;;32.46;32.27
82290;BME280;71891;21.336;-157.724;2023-08-30T05:38:47;101541.24;;;31.85;32.42
82290;BME280;71891;21.336;-157.724;2023-08-30T05:41:12;101545.70;;;32.58;32.35
82290;BME280;71891;21.336;-157.724;2023-08-30T05:43:38;101551.70;;;32.27;32.07
82290;BME280;71891;21.336;-157.724;2023-08-30T05:46:04;101555.96;;;32.11;31.96
82290;BME280;71891;21.336;-157.724;2023-08-30T05:48:29;101554.64;;;31.62;32.07
82290;BME280;71891;21.336;-157.724;2023-08-30T05:50:54;101557.70;;;31.86;31.43
82290;BME280;71891;21.336;-157.724;2023-08-30T05:53:20;101556.15;;;32.28;31.41
82290;BME280;71891;21.336;-157.724;2023-08-30T05:55:46;101556.27;;;31.78;31.47
82290;BME280;71891;21.336;-157.724;2023-08-30T05:58:11;101559.86;;;31.65;31.68
82290;BME280;71891;21.336;-157.724;2023-08-30T06:00:37;101558.30;;;31.55;31.28
82290;BME280;71891;21.336;-157.724;2023-08-30T06:03:03;101557.60;;;31.78;31.32
82290;BME280;71891;21.336;-157.724;2023-08-30T06:05:28;101562.04;;;30.82;31.40
82290;BME280;71891;21.336;-157.724;2023-08-30T06:07:54;101567.44;;;32.00;31.34
82290;BME280;71891;21.336;-157.724;2023-08-30T06:10:19;101568.35;;;31.89;31.61
82290;BME280;71891;21.336;-157.724;2023-08-30T06:12:45;101574.71;;;31.83;32.44
82290;BME280;71891;21.336;-157.724;2023-08-30T06:15:10;101577.12;;;31.21;32.00
82290;BME280;71891;21.336;-157.724;2023-08-30T06:17:36;101579.16;;;31.89;31.90
82290;BME280;71891;21.336;-157.724;2023-08-30T06:20:02;101581.81;;;31.20;32.01
82290;BME280;71891;21.336;-157.724;2023-08-30T06:22:27;101582.28;;;32.24;31.67
82290;BME280;71891;21.336;-157.724;2023-08-30T06:24:53;101586.77;;;31.10;32.46
82290;BME280;71891;21.336;-157.724;2023-08-30T06:27:19;101596.22;;;31.71;31.77
82290;BME280;71891;21.336;-157.724;2023-08-30T06:29:45;101600.74;;;31.27;31.89
82290;BME280;71891;21.336;-157.724;2023-08-30T06:32:10;101604.99;;;31.87;32.10
82290;BME280;71891;21.336;-157.724;2023-08-30T06:34:35;101608.45;;;30.80;31.77
82290;BME280;71891;21.336;-157.724;2023-08-30T06:37:01;101607.54;;;31.09;31.49
82290;BME280;71891;21.336;-157.724;2023-08-30T06:39:33;101607.12;;;31.10;31.01
82290;BME280;71891;21.336;-157.724;2023-08-30T06:41:52;101609.74;;;31.63;30.97
82290;BME280;71891;21.336;-157.724;2023-08-30T06:44:17;101618.31;;;32.16;30.31
82290;BME280;71891;21.336;-157.724;2023-08-30T06:46:43;101612.63;;;30.77;31.44
82290;BME280;71891;21.336;-157.724;2023-08-30T06:49:09;101615.19;;;30.69;31.75
82290;BME280;71891;21.336;-157.724;2023-08-30T06:51:35;101617.39;;;31.38;31.74
82290;BME280;71891;21.336;-157.724;2023-08-30T06:54:00;101621.29;;;31.37;31.30
82290;BME280;71891;21.336;-157.724;2023-08-30T06:56:26;101623.83;;;30.71;31.96
82290;BME280;71891;21.336;-157.724;2023-08-30T06:58:51;101626.32;;;30.84;32.13
82290;BME280;71891;21.336;-157.724;2023-08-30T07:01:17;101627.79;;;31.71;31.96
82290;BME280;71891;21.336;-157.724;2023-08-30T07:03:42;101629.19;;;30.51;31.87
82290;BME280;71891;21.336;-157.724;2023-08-30T07:06:08;101629.29;;;31.67;31.71
82290;BME280;71891;21.336;-157.724;2023-08-30T07:08:33;101638.83;;;31.04;31.70
82290;BME280;71891;21.336;-157.724;2023-08-30T07:10:59;101641.20;;;31.12;31.61
82290;BME280;71891;21.336;-157.724;2023-08-30T07:13:25;101639.01;;;30.90;32.13
82290;BME280;71891;21.336;-157.724;2023-08-30T07:15:50;101637.93;;;31.06;32.17
82290;BME280;71891;21.336;-157.724;2023-08-30T07:18:16;101635.69;;;30.55;32.52
82290;BME280;71891;21.336;-157.724;2023-08-30T07:20:41;101641.10;;;29.26;32.65
82290;BME280;71891;21.336;-157.724;2023-08-30T07:23:07;101647.06;;;31.19;31.94
82290;BME280;71891;21.336;-157.724;2023-08-30T07:25:33;101652.06;;;30.67;32.82
82290;BME280;71891;21.336;-157.724;2023-08-30T07:27:59;101648.04;;;30.72;32.49
82290;BME280;71891;21.336;-157.724;2023-08-30T07:30:25;101652.09;;;30.78;33.06
82290;BME280;71891;21.336;-157.724;2023-08-30T07:32:49;101649.98;;;30.76;32.26
82290;BME280;71891;21.336;-157.724;2023-08-30T07:35:15;101655.00;;;30.84;32.30
82290;BME280;71891;21.336;-157.724;2023-08-30T07:37:41;101658.80;;;31.29;32.13
82290;BME280;71891;21.336;-157.724;2023-08-30T07:40:08;101668.03;;;30.29;32.35
82290;BME280;71891;21.336;-157.724;2023-08-30T07:42:32;101668.26;;;30.79;33.03
82290;BME280;71891;21.336;-157.724;2023-08-30T07:44:57;101673.98;;;30.48;32.85
82290;BME280;71891;21.336;-157.724;2023-08-30T07:47:23;101670.76;;;30.96;32.35
82290;BME280;71891;21.336;-157.724;2023-08-30T07:49:49;101676.69;;;30.89;32.57
82290;BME280;71891;21.336;-157.724;2023-08-30T07:52:14;101682.27;;;31.28;32.61
82290;BME280;71891;21.336;-157.724;2023-08-30T07:54:40;101685.09;;;31.07;32.36
82290;BME280;71891;21.336;-157.724;2023-08-30T07:57:06;101684.36;;;30.51;33.03
82290;BME280;71891;21.336;-157.724;2023-08-30T07:59:33;101692.84;;;29.97;33.66
82290;BME280;71891;21.336;-157.724;2023-08-30T08:01:56;101690.59;;;31.10;32.29
82290;BME280;71891;21.336;-157.724;2023-08-30T08:04:22;101690.45;;;31.03;32.17
82290;BME280;71891;21.336;-157.724;2023-08-30T08:06:48;101684.37;;;30.73;32.53
82290;BME280;71891;21.336;-157.724;2023-08-30T08:09:13;101688.23;;;31.15;32.43
82290;BME280;71891;21.336;-157.724;2023-08-30T08:11:39;101693.34;;;30.75;32.88
82290;BME280;71891;21.336;-157.724;2023-08-30T08:14:04;101686.35;;;30.64;33.04
82290;BME280;71891;21.336;-157.724;2023-08-30T08:16:30;101690.48;;;30.56;33.14
82290;BME280;71891;21.336;-157.724;2023-08-30T08:18:56;101689.79;;;30.27;33.20
82290;BME280;71891;21.336;-157.724;2023-08-30T08:21:21;101686.77;;;30.46;32.94
82290;BME280;71891;21.336;-157.724;2023-08-30T08:23:47;101691.53;;;30.47;33.16
82290;BME280;71891;21.336;-157.724;2023-08-30T08:26:13;101690.59;;;30.77;33.06
82290;BME280;71891;21.336;-157.724;2023-08-30T08:28:38;101688.97;;;30.20;33.50
82290;BME280;71891;21.336;-157.724;2023-08-30T08:31:04;101688.02;;;31.32;32.38
82290;BME280;71891;21.336;-157.724;2023-08-30T08:33:29;101686.00;;;30.87;32.56
82290;BME280;71891;21.336;-157.724;2023-08-30T08:35:55;101686.10;;;30.76;32.78
82290;BME280;71891;21.336;-157.724;2023-08-30T08:38:21;101684.48;;;30.98;32.25
82290;BME280;71891;21.336;-157.724;2023-08-30T08:40:47;101688.60;;;30.35;33.38
82290;BME280;71891;21.336;-157.724;2023-08-30T08:43:12;101688.62;;;30.57;33.49
82290;BME280;71891;21.336;-157.724;2023-08-30T08:45:37;101690.04;;;30.55;33.31
82290;BME280;71891;21.336;-157.724;2023-08-30T08:48:04;101689.90;;;30.42;33.26
82290;BME280;71891;21.336;-157.724;2023-08-30T08:50:30;101687.58;;;28.84;33.21
82290;BME280;71891;21.336;-157.724;2023-08-30T08:52:55;101695.31;;;30.95;33.40
82290;BME280;71891;21.336;-157.724;2023-08-30T08:55:20;101701.59;;;30.26;34.10
82290;BME280;71891;21.336;-157.724;2023-08-30T08:57:47;101697.62;;;29.97;33.70
82290;BME280;71891;21.336;-157.724;2023-08-30T09:00:12;101702.50;;;30.14;34.17
82290;BME280;71891;21.336;-157.724;2023-08-30T09:02:37;101694.70;;;30.77;33.80
82290;BME280;71891;21.336;-157.724;2023-08-30T09:05:03;101697.69;;;30.16;33.87
82290;BME280;71891;21.336;-157.724;2023-08-30T09:07:28;101693.05;;;30.53;33.61
82290;BME280;71891;21.336;-157.724;2023-08-30T09:09:54;101693.56;;;30.76;33.74
82290;BME280;71891;21.336;-157.724;2023-08-30T09:12:19;101691.85;;;30.53;33.67
82290;BME280;71891;21.336;-157.724;2023-08-30T09:14:54;101696.46;;;30.32;33.89
82290;BME280;71891;21.336;-157.724;2023-08-30T09:17:10;101693.69;;;30.60;33.85
82290;BME280;71891;21.336;-157.724;2023-08-30T09:19:36;101694.21;;;29.64;34.28
82290;BME280;71891;21.336;-157.724;2023-08-30T09:22:01;101685.06;;;30.60;33.57
82290;BME280;71891;21.336;-157.724;2023-08-30T09:24:38;101689.94;;;29.68;34.97
82290;BME280;71891;21.336;-157.724;2023-08-30T09:26:54;101691.41;;;30.40;34.34
82290;BME280;71891;21.336;-157.724;2023-08-30T09:29:20;101694.86;;;30.19;34.52
82290;BME280;71891;21.336;-157.724;2023-08-30T09:31:44;101688.92;;;30.58;34.36
82290;BME280;71891;21.336;-157.724;2023-08-30T09:34:10;101686.92;;;30.07;34.52
82290;BME280;71891;21.336;-157.724;2023-08-30T09:36:35;101679.77;;;30.57;33.94
82290;BME280;71891;21.336;-157.724;2023-08-30T09:39:04;101680.31;;;30.19;34.74
82290;BME280;71891;21.336;-157.724;2023-08-30T09:41:26;101676.80;;;30.28;34.34
82290;BME280;71891;21.336;-157.724;2023-08-30T09:43:52;101674.34;;;30.49;34.37
82290;BME280;71891;21.336;-157.724;2023-08-30T09:46:18;101672.50;;;31.04;33.62
82290;BME280;71891;21.336;-157.724;2023-08-30T09:48:43;101670.84;;;30.76;33.22
82290;BME280;71891;21.336;-157.724;2023-08-30T09:51:09;101675.54;;;30.71;33.42
82290;BME280;71891;21.336;-157.724;2023-08-30T09:53:40;101674.43;;;31.10;33.38
82290;BME280;71891;21.336;-157.724;2023-08-30T09:56:00;101675.95;;;30.68;33.44
82290;BME280;71891;21.336;-157.724;2023-08-30T09:58:26;101679.38;;;30.52;34.14
82290;BME280;71891;21.336;-157.724;2023-08-30T10:00:52;101673.04;;;29.98;34.15
82290;BME280;71891;21.336;-157.724;2023-08-30T10:03:17;101668.22;;;30.18;33.90
82290;BME280;71891;21.336;-157.724;2023-08-30T10:05:43;101664.82;;;29.94;33.68
82290;BME280;71891;21.336;-157.724;2023-08-30T10:08:08;101664.06;;;31.60;32.02
82290;BME280;71891;21.336;-157.724;2023-08-30T10:10:34;101666.86;;;31.88;31.17
82290;BME280;71891;21.336;-157.724;2023-08-30T10:12:59;101665.65;;;31.88;30.99
82290;BME280;71891;21.336;-157.724;2023-08-30T10:15:26;101663.96;;;30.48;31.80
82290;BME280;71891;21.336;-157.724;2023-08-30T10:17:53;101663.70;;;31.46;31.25
82290;BME280;71891;21.336;-157.724;2023-08-30T10:20:16;101662.90;;;30.67;30.55
82290;BME280;71891;21.336;-157.724;2023-08-30T10:22:42;101661.21;;;32.19;30.04
82290;BME280;71891;21.336;-157.724;2023-08-30T10:25:10;101668.37;;;31.84;30.48
82290;BME280;71891;21.336;-157.724;2023-08-30T10:27:35;101665.44;;;32.06;29.96
82290;BME280;71891;21.336;-157.724;2023-08-30T10:29:59;101657.99;;;31.59;30.41
82290;BME280;71891;21.336;-157.724;2023-08-30T10:32:24;101653.76;;;32.51;30.04
82290;BME280;71891;21.336;-157.724;2023-08-30T10:34:50;101652.80;;;32.57;30.33
82290;BME280;71891;21.336;-157.724;2023-08-30T10:37:15;101653.67;;;32.02;30.33
82290;BME280;71891;21.336;-157.724;2023-08-30T10:39:42;101650.44;;;32.07;30.24
82290;BME280;71891;21.336;-157.724;2023-08-30T10:42:11;101652.88;;;31.76;30.64
82290;BME280;71891;21.336;-157.724;2023-08-30T10:44:32;101653.58;;;31.74;30.36
82290;BME280;71891;21.336;-157.724;2023-08-30T10:46:57;101653.72;;;31.96;30.63
82290;BME280;71891;21.336;-157.724;2023-08-30T10:49:23;101654.47;;;30.85;30.48
82290;BME280;71891;21.336;-157.724;2023-08-30T10:51:55;101654.98;;;32.23;30.34
82290;BME280;71891;21.336;-157.724;2023-08-30T10:54:15;101658.75;;;32.59;30.00
82290;BME280;71891;21.336;-157.724;2023-08-30T10:59:05;101659.18;;;31.96;30.40
82290;BME280;71891;21.336;-157.724;2023-08-30T11:01:31;101656.87;;;32.76;29.91
82290;BME280;71891;21.336;-157.724;2023-08-30T11:03:56;101661.30;;;32.45;29.66
82290;BME280;71891;21.336;-157.724;2023-08-30T11:06:22;101661.20;;;32.39;29.68
82290;BME280;71891;21.336;-157.724;2023-08-30T11:08:48;101661.87;;;31.88;30.12
82290;BME280;71891;21.336;-157.724;2023-08-30T11:11:13;101657.54;;;31.88;30.46
82290;BME280;71891;21.336;-157.724;2023-08-30T11:13:39;101648.37;;;32.30;29.99
82290;BME280;71891;21.336;-157.724;2023-08-30T11:16:05;101645.77;;;31.92;30.45
82290;BME280;71891;21.336;-157.724;2023-08-30T11:18:30;101642.42;;;31.82;30.46
82290;BME280;71891;21.336;-157.724;2023-08-30T11:21:00;101655.41;;;31.89;30.33
82290;BME280;71891;21.336;-157.724;2023-08-30T11:23:21;101657.01;;;32.61;30.28
82290;BME280;71891;21.336;-157.724;2023-08-30T11:25:51;101653.98;;;32.29;30.31
82290;BME280;71891;21.336;-157.724;2023-08-30T11:28:20;101650.36;;;32.24;30.60
82290;BME280;71891;21.336;-157.724;2023-08-30T11:30:41;101648.15;;;32.58;30.64
82290;BME280;71891;21.336;-157.724;2023-08-30T11:33:04;101652.41;;;32.84;30.85
82290;BME280;71891;21.336;-157.724;2023-08-30T11:35:30;101645.92;;;31.37;31.42
82290;BME280;71891;21.336;-157.724;2023-08-30T11:37:55;101647.66;;;32.24;31.46
82290;BME280;71891;21.336;-157.724;2023-08-30T11:40:21;101649.38;;;32.24;31.17
82290;BME280;71891;21.336;-157.724;2023-08-30T11:42:48;101644.09;;;32.46;31.17
82290;BME280;71891;21.336;-157.724;2023-08-30T11:45:13;101642.86;;;31.38;31.03
82290;BME280;71891;21.336;-157.724;2023-08-30T11:47:37;101645.33;;;32.06;31.43
82290;BME280;71891;21.336;-157.724;2023-08-30T11:50:03;101639.77;;;32.11;30.92
82290;BME280;71891;21.336;-157.724;2023-08-30T11:52:29;101634.27;;;32.05;31.31
82290;BME280;71891;21.336;-157.724;2023-08-30T11:54:54;101631.78;;;31.86;31.15
82290;BME280;71891;21.336;-157.724;2023-08-30T11:57:20;101630.99;;;32.29;30.88
82290;BME280;71891;21.336;-157.724;2023-08-30T11:59:45;101629.98;;;31.89;30.45
82290;BME280;71891;21.336;-157.724;2023-08-30T12:02:12;101627.61;;;31.87;30.94
82290;BME280;71891;21.336;-157.724;2023-08-30T12:04:41;101623.98;;;31.83;30.80
82290;BME280;71891;21.336;-157.724;2023-08-30T12:07:02;101625.93;;;32.11;30.52
82290;BME280;71891;21.336;-157.724;2023-08-30T12:09:31;101619.13;;;32.06;30.09
82290;BME280;71891;21.336;-157.724;2023-08-30T12:11:53;101615.16;;;31.65;31.01
82290;BME280;71891;21.336;-157.724;2023-08-30T12:14:18;101611.14;;;31.79;30.87